Time;durP1;ratioP1;P1;durP2;ratioP2;P2;SDS_P1;SDS_P2;PMS_P1;PMS_P2;Temp;Humidity;BMP_temperature;BMP_pressure;BME280_temperature;BME280_humidity;BME280_pressure;Samples;Min_cycle;Max_cycle;Signal;HPM_P1;HPM_P2
2021/10/20 00:01:50;;;;;;;1.55;0.60;;;;;;;3.17;67.17;99869.47;5034822;28;20037;-62
2021/10/20 00:04:17;;;;;;;1.27;0.88;;;;;;;3.09;67.64;99868.63;5030124;28;20091;-63
2021/10/20 00:06:45;;;;;;;1.50;0.60;;;;;;;3.04;67.99;99870.34;5030649;28;20049;-62
2021/10/20 00:09:11;;;;;;;3.65;0.80;;;;;;;3.00;67.84;99868.63;5043438;28;20041;-62
2021/10/20 00:11:37;;;;;;;1.90;1.08;;;;;;;2.96;68.31;99882.34;5045333;28;20153;-61
2021/10/20 00:14:03;;;;;;;1.67;0.98;;;;;;;2.92;68.56;99880.63;5049988;28;20048;-62
2021/10/20 00:16:29;;;;;;;1.77;1.15;;;;;;;2.94;68.81;99884.91;5037229;28;20033;-62
2021/10/20 00:18:55;;;;;;;2.22;1.10;;;;;;;2.95;69.27;99889.19;5032792;28;20164;-61
2021/10/20 00:21:27;;;;;;;3.80;1.20;;;;;;;2.95;69.30;99891.75;5043673;28;20048;-61
2021/10/20 00:23:54;;;;;;;4.07;1.55;;;;;;;2.97;69.67;99884.06;5048560;28;20037;-60
2021/10/20 00:26:20;;;;;;;3.17;1.50;;;;;;;2.96;69.92;99893.47;5040656;28;20115;-62
2021/10/20 00:28:46;;;;;;;4.78;1.83;;;;;;;2.95;70.03;99896.88;5030825;28;20529;-62
2021/10/20 00:31:12;;;;;;;2.58;1.48;;;;;;;2.93;70.50;99901.16;5031937;28;20049;-65
2021/10/20 00:33:37;;;;;;;3.08;1.33;;;;;;;2.95;70.23;99898.59;5033652;28;20125;-61
2021/10/20 00:36:03;;;;;;;1.90;1.10;;;;;;;2.95;70.52;99896.88;5040326;28;20049;-63
2021/10/20 00:38:29;;;;;;;1.23;0.95;;;;;;;2.98;70.51;99896.03;5016832;28;20505;-61
2021/10/20 00:40:55;;;;;;;2.65;1.10;;;;;;;2.96;70.52;99903.75;5012704;28;20041;-62
2021/10/20 00:43:22;;;;;;;1.95;1.20;;;;;;;2.97;70.45;99902.88;5015427;28;20077;-63
2021/10/20 00:45:48;;;;;;;4.78;1.25;;;;;;;3.02;70.77;99900.31;5011205;28;20041;-61
2021/10/20 00:48:14;;;;;;;1.48;1.00;;;;;;;3.08;70.69;99908.03;5009584;28;20485;-61
2021/10/20 00:50:40;;;;;;;2.17;1.30;;;;;;;3.15;70.44;99908.84;5026612;28;20113;-63
2021/10/20 00:53:06;;;;;;;2.75;1.27;;;;;;;3.20;70.11;99910.56;5025234;28;20050;-62
2021/10/20 00:55:32;;;;;;;1.75;1.00;;;;;;;3.26;70.44;99913.13;5016600;28;20461;-62
2021/10/20 00:57:58;;;;;;;2.13;1.10;;;;;;;3.31;69.88;99915.69;5024590;28;20045;-62
2021/10/20 01:00:24;;;;;;;1.95;1.05;;;;;;;3.20;69.57;99896.84;5019338;28;20115;-63
2021/10/20 01:02:50;;;;;;;2.10;1.08;;;;;;;3.23;69.41;99907.16;5018904;28;20144;-62
2021/10/20 01:05:16;;;;;;;4.78;1.20;;;;;;;3.19;69.70;99910.59;5015623;28;20407;-63
2021/10/20 01:07:42;;;;;;;2.72;0.93;;;;;;;3.13;69.63;99902.88;5019637;28;20497;-62
2021/10/20 01:10:09;;;;;;;1.77;1.10;;;;;;;2.90;69.82;99875.50;5040009;28;20128;-62
2021/10/20 01:12:35;;;;;;;2.17;1.33;;;;;;;3.01;69.97;99905.44;5033579;28;20042;-61
2021/10/20 01:15:22;;;;;;;1.67;1.00;;;;;;;2.93;70.12;99906.28;5021994;28;20084;-63
2021/10/20 01:17:49;;;;;;;2.13;1.08;;;;;;;2.85;70.21;99900.31;5018116;28;20120;-62
2021/10/20 01:20:16;;;;;;;3.10;1.00;;;;;;;2.77;70.44;99896.91;5028565;28;20119;-61
2021/10/20 01:22:42;;;;;;;2.15;1.00;;;;;;;2.72;70.44;99905.47;5026755;28;20041;-62
2021/10/20 01:25:09;;;;;;;2.45;0.82;;;;;;;2.64;70.67;99897.72;5025946;28;20104;-62
2021/10/20 01:27:35;;;;;;;5.53;1.50;;;;;;;2.59;70.83;99901.16;5021975;28;20052;-62
2021/10/20 01:30:03;;;;;;;3.50;1.20;;;;;;;2.54;70.88;99908.84;5025154;28;20529;-64
2021/10/20 01:32:28;;;;;;;2.00;0.82;;;;;;;2.39;71.44;99896.00;5019289;28;20056;-61
2021/10/20 01:34:55;;;;;;;1.00;0.90;;;;;;;2.43;71.25;99911.38;5023402;28;20041;-61
2021/10/20 01:37:21;;;;;;;4.40;1.00;;;;;;;2.39;71.45;99909.69;5011881;28;20045;-62
2021/10/20 01:39:47;;;;;;;3.80;1.20;;;;;;;2.34;71.47;99919.06;5012416;28;20048;-62
2021/10/20 01:42:13;;;;;;;2.17;0.90;;;;;;;2.28;71.56;99908.78;5010769;28;20042;-62
2021/10/20 01:44:39;;;;;;;2.63;1.02;;;;;;;2.26;71.42;99912.19;5026351;28;20896;-62
2021/10/20 01:47:05;;;;;;;2.88;1.10;;;;;;;2.21;71.59;99919.03;5029976;28;20095;-62
2021/10/20 01:49:30;;;;;;;2.35;1.08;;;;;;;2.16;71.75;99910.47;5013937;28;20042;-63
2021/10/20 01:51:56;;;;;;;2.58;0.98;;;;;;;2.12;72.00;99910.47;5021770;28;20111;-62
2021/10/20 01:54:22;;;;;;;1.95;0.90;;;;;;;2.02;72.10;99901.03;5019248;28;20119;-62
2021/10/20 01:56:48;;;;;;;1.50;1.00;;;;;;;1.96;72.38;99897.56;5026117;28;20041;-63
2021/10/20 01:59:14;;;;;;;1.73;0.82;;;;;;;2.02;72.28;99906.16;5029325;28;20040;-62
2021/10/20 02:01:40;;;;;;;2.58;1.35;;;;;;;2.03;72.40;99917.28;5017241;28;20052;-62
2021/10/20 02:04:10;;;;;;;2.03;1.30;;;;;;;2.01;72.37;99913.84;5027859;28;20136;-63
2021/10/20 02:06:37;;;;;;;2.42;1.10;;;;;;;2.08;72.31;99926.69;5020279;28;20142;-62
2021/10/20 02:09:06;;;;;;;1.48;0.90;;;;;;;2.09;72.39;99918.13;5037035;28;20390;-61
2021/10/20 02:11:33;;;;;;;3.83;1.25;;;;;;;2.07;72.37;99924.97;5020289;28;20440;-60
2021/10/20 02:13:59;;;;;;;1.83;0.90;;;;;;;2.02;72.20;99925.81;5013717;28;20425;-63
2021/10/20 02:16:25;;;;;;;1.58;1.00;;;;;;;1.99;72.35;99930.94;5015454;28;20053;-62
2021/10/20 02:18:50;;;;;;;1.30;0.80;;;;;;;1.95;72.63;99924.91;5021589;28;20464;-63
2021/10/20 02:21:16;;;;;;;1.85;1.00;;;;;;;1.89;72.20;99921.47;5024737;28;20069;-63
2021/10/20 02:23:42;;;;;;;1.58;0.73;;;;;;;1.76;72.41;99909.47;5031457;28;20520;-62
2021/10/20 02:26:07;;;;;;;3.30;1.00;;;;;;;1.72;72.59;99898.34;5019261;28;20053;-62
2021/10/20 02:28:33;;;;;;;1.33;0.80;;;;;;;1.79;72.45;99919.72;5023190;28;20041;-63
2021/10/20 02:30:59;;;;;;;1.33;0.90;;;;;;;1.77;72.54;99922.28;5040827;28;20115;-63
2021/10/20 02:33:25;;;;;;;3.33;0.77;;;;;;;1.76;72.55;99914.59;5023156;28;20046;-62
2021/10/20 02:35:51;;;;;;;1.45;0.90;;;;;;;1.74;72.77;99918.84;5019015;28;20152;-62
2021/10/20 02:38:19;;;;;;;1.90;1.05;;;;;;;1.68;72.87;99912.81;5023388;28;20037;-62
2021/10/20 02:40:44;;;;;;;3.20;0.98;;;;;;;1.67;72.81;99920.53;5028199;28;20448;-60
2021/10/20 02:43:10;;;;;;;2.28;1.10;;;;;;;1.67;72.95;99931.63;5030019;28;20090;-62
2021/10/20 02:45:38;;;;;;;2.90;1.08;;;;;;;1.64;72.71;99921.34;5030150;28;20041;-62
2021/10/20 02:48:04;;;;;;;1.35;0.95;;;;;;;1.66;72.85;99932.50;5038440;28;20032;-61
2021/10/20 02:50:30;;;;;;;1.67;0.93;;;;;;;1.69;72.76;99936.75;5039501;28;20061;-62
2021/10/20 02:52:56;;;;;;;2.08;1.00;;;;;;;1.74;73.06;99941.91;5028412;28;20037;-62
2021/10/20 02:55:23;;;;;;;8.82;1.50;;;;;;;1.84;72.30;99953.91;5025788;28;20410;-62
2021/10/20 02:57:48;;;;;;;2.83;1.10;;;;;;;1.96;72.29;99962.53;5033895;28;20069;-63
2021/10/20 03:00:15;;;;;;;3.63;1.33;;;;;;;2.09;72.36;99961.72;5042367;28;20087;-62
2021/10/20 03:02:40;;;;;;;1.73;1.25;;;;;;;2.28;71.62;99965.22;5048495;28;20045;-62
2021/10/20 03:05:06;;;;;;;1.83;1.23;;;;;;;2.44;71.24;99969.56;5025093;28;20042;-63
2021/10/20 03:07:32;;;;;;;2.55;1.40;;;;;;;2.47;71.13;99949.03;5011600;28;20042;-63
2021/10/20 03:09:58;;;;;;;4.18;1.50;;;;;;;2.63;70.59;99975.59;5048743;28;20047;-63
2021/10/20 03:12:24;;;;;;;2.85;1.42;;;;;;;2.66;69.90;99979.88;5050664;28;20048;-62
2021/10/20 03:14:50;;;;;;;2.60;1.67;;;;;;;2.49;69.52;99967.88;5040439;28;20091;-61
2021/10/20 03:17:16;;;;;;;1.95;1.40;;;;;;;2.63;69.19;99979.84;5037356;28;20071;-63
2021/10/20 03:19:43;;;;;;;1.83;1.30;;;;;;;2.65;68.93;99976.44;5048070;28;20040;-63
2021/10/20 03:22:12;;;;;;;3.55;1.50;;;;;;;2.71;68.89;99978.19;5050769;28;20604;-62
2021/10/20 03:24:38;;;;;;;4.22;1.70;;;;;;;2.73;68.87;99987.59;5041010;28;20131;-63
2021/10/20 03:27:04;;;;;;;3.85;1.85;;;;;;;2.77;68.72;99994.47;5032109;28;20132;-63
2021/10/20 03:29:29;;;;;;;3.25;1.50;;;;;;;2.74;68.22;99976.47;5030822;28;20124;-63
2021/10/20 03:31:55;;;;;;;2.22;1.50;;;;;;;2.79;68.18;99990.16;5045268;28;20538;-63
2021/10/20 03:34:21;;;;;;;2.97;1.60;;;;;;;2.80;68.01;99997.03;5032513;28;20042;-63
2021/10/20 03:36:46;;;;;;;4.60;1.58;;;;;;;2.83;67.83;99989.31;5054159;28;20068;-62
2021/10/20 03:39:12;;;;;;;2.55;1.58;;;;;;;2.86;67.65;99994.47;5033080;28;20032;-61
2021/10/20 03:41:38;;;;;;;3.65;1.60;;;;;;;2.91;67.37;100000.47;5043115;28;20037;-62
2021/10/20 03:44:04;;;;;;;3.08;1.80;;;;;;;2.95;67.29;99993.63;5029879;28;20062;-62
2021/10/20 03:46:29;;;;;;;5.35;1.38;;;;;;;2.99;67.18;99992.75;5014048;28;20046;-62
2021/10/20 03:48:55;;;;;;;2.90;1.33;;;;;;;2.98;66.85;99991.06;5017887;28;20060;-59
2021/10/20 03:51:21;;;;;;;2.50;1.10;;;;;;;2.93;66.39;99995.34;5018805;28;20089;-62
2021/10/20 03:53:46;;;;;;;3.42;1.15;;;;;;;2.88;66.05;99999.59;5017376;28;20050;-62
2021/10/20 03:56:12;;;;;;;1.58;1.00;;;;;;;2.95;66.24;99998.75;5024347;28;20048;-62
2021/10/20 03:58:38;;;;;;;4.10;1.48;;;;;;;3.04;66.11;99997.88;5038461;28;20037;-62
2021/10/20 04:01:03;;;;;;;2.65;1.35;;;;;;;3.14;66.08;99994.50;5031503;28;20044;-61
2021/10/20 04:03:29;;;;;;;3.25;1.10;;;;;;;3.15;65.93;99996.19;5020530;28;20048;-63
2021/10/20 04:05:55;;;;;;;2.22;1.20;;;;;;;3.22;65.59;100000.47;5022080;28;20453;-61
2021/10/20 04:08:20;;;;;;;4.63;1.20;;;;;;;3.31;65.60;99995.34;5015997;28;20036;-62
2021/10/20 04:10:46;;;;;;;5.22;1.50;;;;;;;3.33;65.26;99991.94;5012952;28;20045;-62
2021/10/20 04:13:12;;;;;;;5.15;1.30;;;;;;;3.36;64.96;99997.06;5026872;28;20044;-61
2021/10/20 04:15:38;;;;;;;3.00;1.13;;;;;;;3.33;65.30;99997.06;5031412;28;20041;-63
2021/10/20 04:18:04;;;;;;;2.40;1.00;;;;;;;3.19;64.57;99996.19;5010314;28;20136;-62
2021/10/20 04:20:30;;;;;;;3.08;0.93;;;;;;;3.03;64.54;100009.03;5026425;28;20037;-61
2021/10/20 04:22:55;;;;;;;3.08;1.13;;;;;;;2.75;64.89;99985.88;5028019;28;20041;-63
2021/10/20 04:25:22;;;;;;;3.42;1.30;;;;;;;2.67;64.54;99981.59;5009603;28;20103;-61
2021/10/20 04:27:50;;;;;;;1.77;1.10;;;;;;;2.59;65.05;99985.84;5026509;28;20470;-63
2021/10/20 04:30:17;;;;;;;2.53;1.02;;;;;;;2.58;65.09;99986.69;5021202;28;20064;-63
2021/10/20 04:32:43;;;;;;;1.70;1.30;;;;;;;2.45;65.12;99984.09;5022300;28;20132;-65
2021/10/20 04:35:10;;;;;;;3.55;1.98;;;;;;;2.44;65.48;99992.66;5029529;28;20532;-64
2021/10/20 04:37:37;;;;;;;2.72;1.45;;;;;;;2.43;65.78;99984.94;5029209;28;20067;-64
2021/10/20 04:40:05;;;;;;;2.67;1.40;;;;;;;2.37;65.90;99978.06;5011330;28;20124;-65
2021/10/20 04:42:31;;;;;;;2.50;1.20;;;;;;;2.32;66.10;99982.34;5029478;28;20129;-64
2021/10/20 04:44:58;;;;;;;7.10;1.48;;;;;;;2.25;66.01;99979.75;5027902;28;20174;-65
2021/10/20 04:47:24;;;;;;;2.97;1.50;;;;;;;2.13;66.22;99970.31;5029182;28;20041;-65
2021/10/20 04:49:50;;;;;;;6.88;1.58;;;;;;;2.18;66.68;99985.72;5028749;28;20053;-65
2021/10/20 04:52:16;;;;;;;6.38;1.70;;;;;;;2.16;66.73;99990.81;5021837;28;20057;-65
2021/10/20 04:54:42;;;;;;;6.22;1.50;;;;;;;2.17;66.55;99981.41;5028992;28;20041;-65
2021/10/20 04:57:09;;;;;;;2.15;1.20;;;;;;;2.22;66.16;99990.00;5029680;28;20094;-64
2021/10/20 04:59:34;;;;;;;2.58;1.50;;;;;;;2.23;66.14;99987.44;5033515;28;20065;-63
2021/10/20 05:02:03;;;;;;;5.95;1.92;;;;;;;2.30;65.97;99980.63;5021825;28;20080;-62
2021/10/20 05:04:30;;;;;;;6.00;1.27;;;;;;;2.30;66.16;99976.38;5048335;28;20056;-62
2021/10/20 05:06:56;;;;;;;3.85;2.10;;;;;;;2.37;65.86;99982.34;5045463;28;20048;-61
2021/10/20 05:09:21;;;;;;;3.63;1.27;;;;;;;2.38;65.59;99969.53;5027933;28;20041;-65
2021/10/20 05:11:47;;;;;;;3.53;1.20;;;;;;;2.52;65.34;99979.81;5028578;28;20033;-63
2021/10/20 05:14:13;;;;;;;4.20;1.80;;;;;;;2.77;64.79;99973.06;5027988;28;20437;-68
2021/10/20 05:16:38;;;;;;;2.10;1.50;;;;;;;3.48;63.43;99988.47;5004863;28;20037;-64
2021/10/20 05:19:04;;;;;;;5.65;2.20;;;;;;;4.21;61.21;99966.00;5031518;28;20048;-62
2021/10/20 05:21:30;;;;;;;2.45;1.50;;;;;;;4.77;60.00;99982.88;5027213;28;20099;-62
2021/10/20 05:23:56;;;;;;;4.72;1.30;;;;;;;5.24;59.02;99979.09;5008877;28;20211;-62
2021/10/20 05:26:21;;;;;;;3.65;1.48;;;;;;;5.55;57.07;99972.78;5021544;28;20111;-64
2021/10/20 05:28:47;;;;;;;4.25;1.67;;;;;;;6.42;55.59;99989.94;5033904;28;20057;-64
2021/10/20 05:31:13;;;;;;;6.50;1.98;;;;;;;7.26;53.61;99987.88;5008726;28;20042;-63
2021/10/20 05:33:39;;;;;;;5.97;2.03;;;;;;;7.91;51.49;99980.66;5027514;28;20487;-63
2021/10/20 05:36:05;;;;;;;5.65;1.65;;;;;;;8.11;49.29;99986.34;5032359;28;20041;-60
2021/10/20 05:38:31;;;;;;;6.60;1.45;;;;;;;8.03;47.99;99983.03;5032933;28;20059;-61
2021/10/20 05:40:57;;;;;;;2.97;1.48;;;;;;;8.16;48.12;99975.91;5032592;28;20508;-61
2021/10/20 05:43:23;;;;;;;4.45;1.60;;;;;;;8.80;47.33;99984.03;5032842;28;20056;-60
2021/10/20 05:45:49;;;;;;;3.80;1.40;;;;;;;9.23;44.92;99981.31;5031410;28;20107;-62
2021/10/20 05:48:15;;;;;;;3.25;1.40;;;;;;;9.40;45.47;99960.13;5032763;28;20142;-61
2021/10/20 05:50:45;;;;;;;5.10;1.98;;;;;;;10.35;43.79;99984.44;5035432;28;20069;-59
2021/10/20 05:53:10;;;;;;;3.28;1.17;;;;;;;10.11;42.92;99967.75;5046678;28;20040;-62
2021/10/20 05:55:40;;;;;;;3.65;1.73;;;;;;;9.99;42.92;99965.50;5049471;28;20495;-64
2021/10/20 05:58:06;;;;;;;6.60;1.50;;;;;;;10.67;42.79;99973.09;5031564;28;20049;-67
2021/10/20 06:00:32;;;;;;;4.40;1.88;;;;;;;11.61;41.12;99980.47;5010526;28;20037;-64
2021/10/20 06:02:58;;;;;;;2.33;1.83;;;;;;;12.13;40.56;99961.31;5012558;28;20132;-61
2021/10/20 06:05:23;;;;;;;3.83;1.60;;;;;;;12.47;39.72;99986.97;5042192;28;20106;-62
2021/10/20 06:07:50;;;;;;;7.55;1.95;;;;;;;12.46;39.05;99980.91;5031046;28;20045;-60
2021/10/20 06:10:16;;;;;;;6.45;1.77;;;;;;;11.23;40.32;99974.78;5021201;28;20465;-60
2021/10/20 06:12:42;;;;;;;3.65;1.88;;;;;;;10.34;42.26;99970.59;5012019;28;20041;-62
2021/10/20 06:15:09;;;;;;;4.03;1.88;;;;;;;8.96;44.11;99981.09;5012342;28;20457;-61
2021/10/20 06:17:36;;;;;;;3.38;1.92;;;;;;;7.98;46.43;99983.13;5038488;28;20056;-63
2021/10/20 06:20:04;;;;;;;2.80;1.55;;;;;;;7.09;48.24;99971.75;5010442;28;20095;-65
2021/10/20 06:22:29;;;;;;;5.97;2.10;;;;;;;6.82;49.37;99985.94;5010474;28;20046;-64
2021/10/20 06:24:55;;;;;;;11.15;2.42;;;;;;;6.62;49.83;99986.22;5027145;28;20070;-64
2021/10/20 06:27:21;;;;;;;5.88;2.53;;;;;;;7.00;49.35;99984.84;5011967;28;20057;-59
2021/10/20 06:29:47;;;;;;;4.35;1.85;;;;;;;7.79;48.06;99980.91;5016348;28;20120;-62
2021/10/20 06:32:13;;;;;;;6.45;2.08;;;;;;;9.15;45.83;99972.00;5007516;28;20137;-64
2021/10/20 06:34:39;;;;;;;4.95;1.65;;;;;;;10.26;43.52;99966.53;5011655;28;20042;-63
2021/10/20 06:37:04;;;;;;;3.10;1.90;;;;;;;10.19;42.54;99968.44;4994081;28;20048;-64
2021/10/20 06:39:30;;;;;;;2.97;1.80;;;;;;;9.70;43.40;99966.28;5017102;28;20123;-64
2021/10/20 06:41:56;;;;;;;4.05;1.92;;;;;;;8.62;45.72;99939.53;5013878;28;20461;-66
2021/10/20 06:44:22;;;;;;;4.57;1.92;;;;;;;8.51;46.66;99968.28;5057515;28;20424;-65
2021/10/20 06:46:48;;;;;;;7.32;1.88;;;;;;;7.92;47.45;99969.44;5032752;28;20103;-64
2021/10/20 06:49:15;;;;;;;5.68;2.60;;;;;;;7.02;49.77;99973.56;5027451;28;20375;-67
2021/10/20 06:51:41;;;;;;;5.28;2.55;;;;;;;6.43;50.90;99960.69;5010327;28;20061;-64
2021/10/20 06:54:07;;;;;;;6.25;2.60;;;;;;;6.20;51.97;99961.81;5010786;28;20099;-64
2021/10/20 06:56:32;;;;;;;4.13;2.20;;;;;;;5.85;52.57;99958.75;5011266;28;20056;-64
2021/10/20 06:58:58;;;;;;;6.47;2.38;;;;;;;5.56;53.60;99956.47;5012536;28;20045;-65
2021/10/20 07:01:24;;;;;;;3.85;1.40;;;;;;;5.36;54.79;99950.63;5013363;28;20046;-62
2021/10/20 07:03:50;;;;;;;16.02;2.70;;;;;;;5.00;55.32;99960.41;5027635;28;20072;-64
2021/10/20 07:06:15;;;;;;;4.00;2.00;;;;;;;4.54;56.93;99952.13;5031206;28;20045;-62
2021/10/20 07:08:41;;;;;;;6.15;2.17;;;;;;;4.53;57.24;99960.69;5028485;28;20049;-65
2021/10/20 07:11:07;;;;;;;4.63;2.03;;;;;;;4.61;57.64;99960.66;5028551;28;20037;-62
2021/10/20 07:13:32;;;;;;;6.18;2.45;;;;;;;4.55;58.50;99961.53;5021368;28;20053;-66
2021/10/20 07:15:58;;;;;;;5.93;2.08;;;;;;;4.54;58.51;99964.13;5029581;28;20045;-64
2021/10/20 07:18:27;;;;;;;7.57;1.88;;;;;;;4.78;57.98;99963.13;5030318;28;20041;-65
2021/10/20 07:20:54;;;;;;;3.00;1.70;;;;;;;5.06;57.45;99962.06;5026165;28;20053;-64
2021/10/20 07:23:19;;;;;;;4.00;2.38;;;;;;;4.83;57.44;99958.78;5030081;28;20172;-63
2021/10/20 07:25:45;;;;;;;5.53;1.63;;;;;;;4.56;57.58;99960.66;5024810;28;20135;-64
2021/10/20 07:28:11;;;;;;;2.90;1.52;;;;;;;4.66;57.29;99946.00;5010568;28;20049;-67
2021/10/20 07:30:37;;;;;;;3.60;1.27;;;;;;;4.64;57.42;99943.47;5008711;28;20042;-65
2021/10/20 07:33:04;;;;;;;1.75;1.10;;;;;;;4.55;57.29;99948.66;5008317;28;20108;-64
2021/10/20 07:35:30;;;;;;;1.67;1.08;;;;;;;4.53;57.27;99952.13;5028890;28;20033;-63
2021/10/20 07:37:56;;;;;;;3.70;1.20;;;;;;;4.42;57.51;99936.72;5028376;28;20119;-65
2021/10/20 07:40:21;;;;;;;2.08;1.25;;;;;;;4.35;58.01;99952.19;5016143;28;20073;-66
2021/10/20 07:42:47;;;;;;;1.92;1.05;;;;;;;4.08;58.48;99910.31;5028582;28;20521;-65
2021/10/20 07:45:18;;;;;;;2.30;1.27;;;;;;;3.98;59.22;99928.38;5029312;28;20063;-67
2021/10/20 07:47:48;;;;;;;2.83;1.45;;;;;;;3.76;59.77;99928.47;5017491;28;20046;-65
2021/10/20 07:50:14;;;;;;;;;;;;;;;3.75;59.92;99926.75;5009479;28;20037;-61
2021/10/20 07:52:41;;;;;;;1.98;1.17;;;;;;;3.60;60.01;99919.06;5013457;28;20019;-62
2021/10/20 07:55:07;;;;;;;3.03;1.52;;;;;;;4.77;57.84;99927.91;5010220;28;20053;-64
2021/10/20 07:57:34;;;;;;;2.20;1.45;;;;;;;5.26;56.10;99913.78;5040837;28;20048;-63
2021/10/20 08:00:00;;;;;;;3.13;1.88;;;;;;;6.14;55.28;99922.31;5025975;28;20037;-65
2021/10/20 08:02:25;;;;;;;2.63;1.48;;;;;;;6.43;53.13;99920.22;5010338;28;20467;-62
2021/10/20 08:04:51;;;;;;;3.45;1.90;;;;;;;6.12;54.14;99913.75;5024710;28;20042;-64
2021/10/20 08:07:17;;;;;;;3.70;1.80;;;;;;;5.45;55.24;99902.41;5014337;28;20049;-64
2021/10/20 08:09:43;;;;;;;3.67;2.28;;;;;;;6.26;54.22;99912.69;5021074;28;20052;-65
2021/10/20 08:12:09;;;;;;;1.85;1.50;;;;;;;8.25;48.47;99911.81;5009845;28;20046;-65
2021/10/20 08:14:40;;;;;;;3.22;1.80;;;;;;;8.75;46.37;99902.06;5010907;28;20096;-64
2021/10/20 08:17:07;;;;;;;5.50;2.00;;;;;;;8.43;47.89;99903.66;5006325;28;20042;-62
2021/10/20 08:19:33;;;;;;;15.82;2.83;;;;;;;8.45;46.90;99904.47;5024979;28;20036;-63
2021/10/20 08:21:58;;;;;;;1.73;1.40;;;;;;;8.08;47.05;99908.72;5010952;28;20124;-64
2021/10/20 08:24:24;;;;;;;4.70;2.13;;;;;;;8.82;46.16;99898.47;5017126;28;20037;-64
2021/10/20 08:26:50;;;;;;;1.60;1.50;;;;;;;10.08;42.10;99888.16;5024356;28;20056;-66
2021/10/20 08:29:15;;;;;;;2.78;1.35;;;;;;;10.43;40.05;99876.75;5027289;28;20084;-65
2021/10/20 08:31:42;;;;;;;2.80;2.08;;;;;;;9.93;42.65;99878.22;5028593;28;20052;-66
2021/10/20 08:34:08;;;;;;;2.13;1.92;;;;;;;11.04;40.84;99862.63;5011837;28;20045;-65
2021/10/20 08:36:34;;;;;;;3.88;2.10;;;;;;;12.62;37.58;99879.44;5007775;28;20045;-64
2021/10/20 08:38:59;;;;;;;2.83;2.00;;;;;;;14.29;36.21;99874.84;5015214;28;20088;-64
2021/10/20 08:41:25;;;;;;;3.28;2.08;;;;;;;14.30;36.41;99868.72;5019691;28;20147;-65
2021/10/20 08:43:51;;;;;;;3.38;3.08;;;;;;;13.16;36.38;99868.56;5008365;28;20046;-64
2021/10/20 08:46:23;;;;;;;2.70;1.95;;;;;;;12.04;36.94;99850.41;5009599;28;20061;-65
2021/10/20 08:48:48;;;;;;;3.00;1.70;;;;;;;11.68;37.78;99855.19;5010660;28;20038;-63
2021/10/20 08:51:16;;;;;;;2.08;1.73;;;;;;;10.76;37.61;99850.59;5009479;28;20061;-63
2021/10/20 08:53:42;;;;;;;4.30;2.10;;;;;;;9.76;39.83;99850.13;5008294;28;20156;-66
2021/10/20 08:56:07;;;;;;;3.92;1.83;;;;;;;10.11;39.47;99843.06;5024774;28;20144;-63
2021/10/20 08:58:34;;;;;;;2.55;1.67;;;;;;;9.27;40.18;99850.63;5025189;28;20038;-64
2021/10/20 09:01:00;;;;;;;5.32;1.90;;;;;;;8.53;42.14;99852.47;5009817;28;20137;-65
2021/10/20 09:03:26;;;;;;;2.17;1.40;;;;;;;8.00;43.13;99846.75;5009640;28;20133;-66
2021/10/20 09:05:57;;;;;;;2.75;1.55;;;;;;;7.75;44.32;99844.66;5009632;28;20034;-66
2021/10/20 09:08:22;;;;;;;2.67;1.92;;;;;;;7.43;44.12;99856.50;5025313;28;20088;-65
2021/10/20 09:10:48;;;;;;;3.95;1.70;;;;;;;7.08;45.15;99849.41;5045025;28;20084;-62
2021/10/20 09:13:14;;;;;;;3.80;1.85;;;;;;;6.85;46.08;99840.34;5031769;28;20050;-65
2021/10/20 09:15:41;;;;;;;7.22;2.00;;;;;;;6.65;46.36;99836.34;5031796;28;20540;-65
2021/10/20 09:18:11;;;;;;;2.53;1.77;;;;;;;6.60;46.85;99826.94;5032814;28;20076;-63
2021/10/20 09:20:45;;;;;;;3.85;1.60;;;;;;;6.46;46.98;99839.25;5032944;28;20037;-66
2021/10/20 09:23:16;;;;;;;2.00;1.45;;;;;;;6.37;46.74;99835.06;5012122;28;20041;-63
2021/10/20 09:25:57;;;;;;;2.28;1.52;;;;;;;6.47;46.52;99835.78;5013430;28;20084;-65
2021/10/20 09:28:27;;;;;;;1.90;1.48;;;;;;;6.87;45.84;99838.56;5013132;28;20534;-64
2021/10/20 09:30:59;;;;;;;5.38;1.50;;;;;;;7.39;44.67;99820.38;5013110;28;20080;-65
2021/10/20 09:33:25;;;;;;;2.28;1.55;;;;;;;7.19;45.08;99811.28;5013925;28;20041;-66
2021/10/20 09:35:51;;;;;;;3.78;1.58;;;;;;;7.00;45.96;99827.16;5014913;28;20029;-63
2021/10/20 09:38:17;;;;;;;2.88;1.20;;;;;;;6.77;46.36;99822.38;5028585;28;20061;-65
2021/10/20 09:40:46;;;;;;;3.45;1.70;;;;;;;6.67;47.10;99813.06;5013069;28;20092;-63
2021/10/20 09:43:14;;;;;;;2.03;1.20;;;;;;;7.07;45.96;99775.31;5027762;28;20038;-62
2021/10/20 09:45:42;;;;;;;2.83;1.05;;;;;;;6.95;45.55;99797.97;4982058;28;20124;-65
2021/10/20 09:48:22;;;;;;;2.15;1.25;;;;;;;7.06;45.29;99788.28;5032799;28;20044;-64
2021/10/20 09:50:54;;;;;;;5.10;1.20;;;;;;;7.14;45.56;99789.81;5032888;28;20521;-67
2021/10/20 09:53:21;;;;;;;1.50;1.00;;;;;;;7.31;45.08;99779.16;5013168;28;20513;-65
2021/10/20 09:55:46;;;;;;;2.25;1.20;;;;;;;7.26;45.52;99791.34;5011561;28;20099;-66
2021/10/20 09:58:14;;;;;;;4.38;1.50;;;;;;;7.18;45.46;99782.84;5028303;28;20046;-64
2021/10/20 10:00:41;;;;;;;2.58;1.42;;;;;;;7.22;45.71;99762.09;5012711;28;20141;-63
2021/10/20 10:03:08;;;;;;;1.77;1.20;;;;;;;7.24;45.91;99751.72;5012418;28;20065;-64
2021/10/20 10:05:34;;;;;;;2.63;1.40;;;;;;;7.10;46.08;99748.56;5012474;28;20049;-65
2021/10/20 10:08:00;;;;;;;3.75;1.30;;;;;;;7.33;46.25;99745.53;5012631;28;20451;-65
2021/10/20 10:10:26;;;;;;;2.08;1.40;;;;;;;7.51;45.98;99734.78;5013423;28;20168;-65
2021/10/20 10:12:54;;;;;;;5.70;1.73;;;;;;;7.47;46.13;99727.97;5012596;28;20052;-64
2021/10/20 10:15:20;;;;;;;2.17;1.30;;;;;;;7.83;45.46;99726.31;5011027;28;20074;-64
2021/10/20 10:17:48;;;;;;;3.80;1.20;;;;;;;7.83;44.98;99727.19;5012311;28;20463;-65
2021/10/20 10:20:15;;;;;;;3.83;1.25;;;;;;;7.44;45.62;99728.88;5010155;28;20244;-64
2021/10/20 10:22:59;;;;;;;6.70;1.60;;;;;;;7.31;45.46;99722.28;5010966;28;20049;-66
2021/10/20 10:25:40;;;;;;;4.70;1.60;;;;;;;7.33;45.74;99730.84;5026714;28;20095;-65
2021/10/20 10:28:12;;;;;;;3.72;1.13;;;;;;;7.22;45.22;99701.78;5010617;28;20111;-64
2021/10/20 10:30:57;;;;;;;3.20;1.73;;;;;;;7.08;45.85;99704.63;5011787;28;20042;-65
2021/10/20 10:33:25;;;;;;;3.20;1.50;;;;;;;7.30;45.38;99692.13;5026926;28;20453;-65
2021/10/20 10:36:16;;;;;;;2.92;1.50;;;;;;;7.59;45.03;99689.75;5010225;28;20062;-66
2021/10/20 10:38:43;;;;;;;2.75;1.50;;;;;;;7.42;44.74;99681.53;5010785;28;20052;-64
2021/10/20 10:41:22;;;;;;;5.57;1.60;;;;;;;7.12;45.56;99667.50;5026600;28;20054;-64
2021/10/20 10:44:04;;;;;;;4.45;1.70;;;;;;;6.99;45.46;99680.69;5011333;28;20563;-66
2021/10/20 10:46:41;;;;;;;2.10;1.38;;;;;;;6.70;45.86;99689.84;5045892;28;20078;-63
2021/10/20 10:49:28;;;;;;;2.30;1.13;;;;;;;6.46;46.08;99689.44;5029960;28;20056;-66
2021/10/20 10:52:18;;;;;;;3.13;1.45;;;;;;;6.31;46.29;99675.09;5023269;28;20465;-65
2021/10/20 10:55:06;;;;;;;2.38;1.23;;;;;;;6.42;46.25;99688.66;5026681;28;20461;-64
2021/10/20 10:57:43;;;;;;;2.13;1.33;;;;;;;6.64;45.38;99691.72;5021921;28;20038;-65
2021/10/20 11:00:24;;;;;;;7.07;2.15;;;;;;;6.91;45.24;99682.59;5031677;28;20037;-65
2021/10/20 11:02:51;;;;;;;6.55;1.70;;;;;;;6.88;45.96;99678.34;5046588;28;20435;-65
2021/10/20 11:05:19;;;;;;;4.60;1.90;;;;;;;6.85;46.04;99670.66;5030969;28;20068;-66
2021/10/20 11:07:46;;;;;;;3.20;1.33;;;;;;;6.71;46.53;99665.72;5031279;28;20041;-64
2021/10/20 11:10:12;;;;;;;2.05;1.48;;;;;;;6.79;46.63;99658.69;5012641;28;20042;-65
2021/10/20 11:12:38;;;;;;;3.05;1.50;;;;;;;6.60;47.23;99643.56;5011242;28;20034;-66
2021/10/20 11:15:06;;;;;;;2.65;1.75;;;;;;;6.45;47.23;99654.19;5026681;28;20523;-66
2021/10/20 11:17:32;;;;;;;2.78;1.52;;;;;;;6.44;46.97;99662.81;5010146;28;20107;-66
2021/10/20 11:20:04;;;;;;;4.78;1.30;;;;;;;6.20;47.33;99672.69;5011109;28;20132;-64
2021/10/20 11:22:29;;;;;;;5.60;1.45;;;;;;;6.29;47.33;99657.03;5012170;28;20041;-66
2021/10/20 11:24:55;;;;;;;3.58;1.55;;;;;;;6.49;47.22;99648.09;5010883;28;20092;-64
2021/10/20 11:27:23;;;;;;;1.73;1.02;;;;;;;6.73;46.54;99661.41;5010832;28;20042;-64
2021/10/20 11:29:52;;;;;;;2.13;1.27;;;;;;;6.42;46.96;99649.94;5009464;28;20506;-66
2021/10/20 11:32:20;;;;;;;3.75;1.35;;;;;;;6.31;46.54;99655.28;5021059;28;20476;-64
2021/10/20 11:34:46;;;;;;;1.15;1.02;;;;;;;6.06;47.31;99650.56;5030480;28;20425;-66
2021/10/20 11:37:14;;;;;;;3.85;1.92;;;;;;;5.99;47.71;99639.50;5029970;28;20544;-64
2021/10/20 11:39:43;;;;;;;4.72;1.52;;;;;;;5.88;48.35;99628.50;5029439;28;20034;-65
2021/10/20 11:42:13;;;;;;;11.52;2.83;;;;;;;5.70;49.14;99628.78;5009836;28;20099;-64